Huvudsida
METAR-TAF:

METAR-TAF

Flygplatser :

Svalbards flygplats. Longyear

Longyearbyen, Norge

latitud: 78-15N, longitud: 015-28E, höjd: 2 m

Aktuellt väderrapport

Denna rapport gjordes för 28 minuter sedan, klockan 12:20 UTC
Vind 8 kt från väst/sydväst
Temperatur 0°C
Fuktighet 74%
Tryck 1024 hPa
Sikt 10 km eller mer
Brutna moln på en höjd av 2000 ft
lätt snö

METAR: ENSB 251220Z 25008KT 9999 -SN BKN020 00/M04 Q1024 TEMPO 4000 -SN BKN014 RMK WIND 1400FT 24009KT

Tid: 14:48 (12:48 UTC)

Väderprognos

Prognos gäller från 25 kl. 12 UTC till 26 kl. 12 UTC
Vind 5 kt varierande vindriktning
Sikt 10 km eller mer
Få moln på en höjd av 1500 ft
Brutna moln på en höjd av 2000 ft
Temporärt
från 25 kl. 15 UTC till 25 kl. 24 UTC
Vind 12 kt från väst/sydväst
Sikt: 2000 m
på en höjd av 1000 ft
snö

TAF: ENSB 2512/2612 VRB05KT 9999 FEW015 BKN020 TEMPO 2515/2524 25012KT 2000 SN VV010

Aktuella väderrapporter och prognoser från 4000 flygplatser (METAR- och TAF-rapporter).

De tillgängliga stationerna syns som gula och röda prickar på kartan.

För musen över prickarna för att se namnen på stationerna.

Klicka sedan för att få väderrapporter och prognoser.

För att ändra kartan: Klicka på de gröna knapparna med ett svart kors på för att zooma in; den gröna knappen med ett streck på för att zooma ut; eller på de gröna pilarna för angränsande kartor.


METAR-TAF: